createdAt,value
2023-04-08T00:00:49.412Z,10.30
2023-04-08T00:03:15.958Z,10.70
2023-04-08T00:05:42.459Z,9.70
2023-04-08T00:08:08.789Z,8.75
2023-04-08T00:10:35.324Z,9.47
2023-04-08T00:13:01.806Z,9.13
2023-04-08T00:15:28.269Z,8.85
2023-04-08T00:17:54.802Z,8.48
2023-04-08T00:20:24.145Z,10.25
2023-04-08T00:22:50.939Z,10.47
2023-04-08T00:25:17.384Z,11.20
2023-04-08T00:27:43.917Z,9.23
2023-04-08T00:30:11.553Z,10.35
2023-04-08T00:32:38.148Z,8.80
2023-04-08T00:35:05.263Z,10.07
2023-04-08T00:37:31.815Z,9.77
2023-04-08T00:39:58.405Z,10.68
2023-04-08T00:42:24.934Z,9.02
2023-04-08T00:44:51.564Z,9.40
2023-04-08T00:47:18.538Z,8.83
2023-04-08T00:49:45.348Z,9.43
2023-04-08T00:52:11.801Z,9.95
2023-04-08T00:54:38.566Z,10.18
2023-04-08T00:57:06.269Z,8.88
2023-04-08T00:59:33.919Z,10.30
2023-04-08T01:02:16.854Z,8.73
2023-04-08T01:04:50.046Z,9.32
2023-04-08T01:07:27.696Z,8.07
2023-04-08T01:10:02.011Z,7.85
2023-04-08T01:12:33.021Z,8.23
2023-04-08T01:15:04.848Z,8.45
2023-04-08T01:17:32.302Z,8.88
2023-04-08T01:20:01.800Z,9.07
2023-04-08T01:22:43.761Z,8.18
2023-04-08T01:25:23.678Z,7.20
2023-04-08T01:27:50.909Z,7.65
2023-04-08T01:30:21.942Z,7.28
2023-04-08T01:32:49.494Z,7.20
2023-04-08T01:35:16.510Z,7.68
2023-04-08T01:37:44.993Z,7.83
2023-04-08T01:40:12.306Z,6.13
2023-04-08T01:42:39.295Z,7.78
2023-04-08T01:45:06.909Z,9.45
2023-04-08T01:47:34.954Z,6.25
2023-04-08T01:50:03.235Z,7.20
2023-04-08T01:52:30.785Z,8.30
2023-04-08T01:54:57.291Z,7.35
2023-04-08T01:57:27.013Z,7.10
2023-04-08T01:59:58.500Z,6.40
2023-04-08T02:02:27.092Z,6.73
2023-04-08T02:04:56.074Z,7.43
2023-04-08T02:07:22.530Z,7.43
2023-04-08T02:09:49.893Z,7.00
2023-04-08T02:12:16.478Z,6.47
2023-04-08T02:14:43.446Z,6.87
2023-04-08T02:17:21.370Z,8.40
2023-04-08T02:19:56.321Z,8.05
2023-04-08T02:22:44.765Z,7.05
2023-04-08T02:25:14.900Z,7.85
2023-04-08T02:27:43.545Z,7.20
2023-04-08T02:30:11.992Z,6.95
2023-04-08T02:32:39.127Z,7.22
2023-04-08T02:35:05.901Z,6.28
2023-04-08T02:37:32.750Z,6.88
2023-04-08T02:39:59.455Z,6.47
2023-04-08T02:42:26.368Z,7.03
2023-04-08T02:44:53.015Z,6.75
2023-04-08T02:47:19.392Z,6.85
2023-04-08T02:49:45.905Z,6.43
2023-04-08T02:52:12.406Z,6.70
2023-04-08T02:54:38.766Z,6.57
2023-04-08T02:57:05.338Z,7.30
2023-04-08T02:59:31.695Z,7.35
2023-04-08T03:01:58.151Z,6.97
2023-04-08T03:04:24.586Z,6.93
2023-04-08T03:06:50.999Z,7.07
2023-04-08T03:09:17.443Z,7.35
2023-04-08T03:11:44.910Z,7.95
2023-04-08T03:14:11.559Z,7.90
2023-04-08T03:16:37.934Z,8.70
2023-04-08T03:19:04.380Z,7.88
2023-04-08T03:21:31.832Z,9.10
2023-04-08T03:23:58.304Z,8.75
2023-04-08T03:26:27.066Z,8.63
2023-04-08T03:28:53.503Z,8.67
2023-04-08T03:31:21.255Z,9.30
2023-04-08T03:33:47.878Z,9.40
2023-04-08T03:36:14.262Z,9.25
2023-04-08T03:38:40.758Z,9.38
2023-04-08T03:41:07.157Z,9.73
2023-04-08T03:43:33.925Z,9.90
2023-04-08T03:46:01.188Z,10.00
2023-04-08T03:48:28.228Z,10.13
2023-04-08T03:50:54.581Z,10.43
2023-04-08T03:53:21.030Z,10.00
2023-04-08T03:55:50.568Z,10.40
2023-04-08T03:58:16.885Z,9.95
2023-04-08T04:00:43.273Z,9.40
2023-04-08T04:03:13.046Z,9.25
2023-04-08T04:05:40.257Z,9.20
2023-04-08T04:08:07.165Z,10.10
2023-04-08T04:10:33.653Z,9.60
2023-04-08T04:13:00.516Z,9.82
2023-04-08T04:15:27.127Z,9.10
2023-04-08T04:17:53.657Z,9.50
2023-04-08T04:20:21.641Z,8.63
2023-04-08T04:22:47.964Z,9.75
2023-04-08T04:25:14.468Z,8.82
2023-04-08T04:27:40.853Z,8.32
2023-04-08T04:30:09.436Z,9.23
2023-04-08T04:32:35.851Z,8.75
2023-04-08T04:35:02.362Z,8.65
2023-04-08T04:37:28.783Z,8.55
2023-04-08T04:39:55.317Z,8.90
2023-04-08T04:42:21.750Z,8.40
2023-04-08T04:44:48.130Z,9.18
2023-04-08T04:47:16.076Z,8.13
2023-04-08T04:49:42.826Z,8.00
2023-04-08T04:52:09.214Z,8.35
2023-04-08T04:54:38.753Z,8.53
2023-04-08T04:57:05.427Z,7.78
2023-04-08T04:59:31.903Z,7.82
2023-04-08T05:01:58.466Z,8.73
2023-04-08T05:04:26.272Z,8.23
2023-04-08T05:06:52.754Z,8.63
2023-04-08T05:09:19.148Z,8.23
2023-04-08T05:11:45.559Z,7.53
2023-04-08T05:14:12.380Z,7.95
2023-04-08T05:16:39.266Z,7.47
2023-04-08T05:19:05.853Z,7.97
2023-04-08T05:21:32.667Z,7.32
2023-04-08T05:23:59.146Z,7.53
2023-04-08T05:26:26.243Z,7.68
2023-04-08T05:28:52.836Z,7.63
2023-04-08T05:31:20.131Z,7.10
2023-04-08T05:33:47.545Z,7.50
2023-04-08T05:36:14.596Z,7.07
2023-04-08T05:38:43.173Z,6.47
2023-04-08T05:41:09.664Z,6.30
2023-04-08T05:43:36.807Z,6.30
2023-04-08T05:46:08.006Z,6.78
2023-04-08T05:48:34.439Z,6.03
2023-04-08T05:51:01.088Z,6.25
2023-04-08T05:53:27.589Z,6.18
2023-04-08T05:55:54.028Z,6.10
2023-04-08T05:58:20.675Z,6.20
2023-04-08T06:00:47.161Z,5.80
2023-04-08T06:03:13.936Z,5.97
2023-04-08T06:05:40.605Z,5.78
2023-04-08T06:08:07.068Z,6.27
2023-04-08T06:10:33.497Z,6.45
2023-04-08T06:12:59.941Z,5.90
2023-04-08T06:15:26.490Z,6.20
2023-04-08T06:17:52.994Z,6.50
2023-04-08T06:20:19.352Z,6.17
2023-04-08T06:22:45.773Z,6.70
2023-04-08T06:25:12.324Z,6.32
2023-04-08T06:27:38.748Z,6.50
2023-04-08T06:30:05.735Z,6.88
2023-04-08T06:32:32.235Z,6.90
2023-04-08T06:34:59.818Z,6.30
2023-04-08T06:37:26.269Z,6.85
2023-04-08T06:39:52.720Z,6.75
2023-04-08T06:42:19.852Z,7.03
2023-04-08T06:44:46.240Z,7.17
2023-04-08T06:47:12.615Z,7.15
2023-04-08T06:49:39.091Z,7.28
2023-04-08T06:52:06.874Z,6.95
2023-04-08T06:54:33.257Z,6.70
2023-04-08T06:56:59.658Z,7.40
2023-04-08T06:59:26.081Z,7.07
2023-04-08T07:01:52.589Z,7.50
2023-04-08T07:04:19.114Z,7.43
2023-04-08T07:06:45.820Z,6.97
2023-04-08T07:09:12.235Z,6.33
2023-04-08T07:11:38.566Z,6.72
2023-04-08T07:14:04.958Z,6.30
2023-04-08T07:16:31.358Z,7.15
2023-04-08T07:18:58.005Z,6.32
2023-04-08T07:21:24.412Z,6.77
2023-04-08T07:23:50.820Z,7.82
2023-04-08T07:26:17.287Z,7.30
2023-04-08T07:28:43.723Z,6.63
2023-04-08T07:31:11.946Z,6.18
2023-04-08T07:33:38.367Z,6.80
2023-04-08T07:36:05.190Z,6.35
2023-04-08T07:38:31.783Z,6.75
2023-04-08T07:40:58.227Z,7.05
2023-04-08T07:43:24.557Z,6.55
2023-04-08T07:45:51.279Z,6.87
2023-04-08T07:48:17.827Z,6.20
2023-04-08T07:51:09.488Z,5.78
2023-04-08T07:53:33.563Z,6.00
2023-04-08T07:56:00.707Z,6.25
2023-04-08T07:58:27.435Z,5.93
2023-04-08T08:00:54.192Z,6.13
2023-04-08T08:03:20.790Z,6.93
2023-04-08T08:05:47.249Z,5.85
2023-04-08T08:08:13.630Z,6.07
2023-04-08T08:10:40.632Z,6.47
2023-04-08T08:13:08.036Z,6.25
2023-04-08T08:15:34.475Z,5.95
2023-04-08T08:18:01.149Z,6.40
2023-04-08T08:20:28.030Z,5.80
2023-04-08T08:22:57.521Z,6.63
2023-04-08T08:25:26.075Z,5.85
2023-04-08T08:27:52.943Z,5.90
2023-04-08T08:30:21.225Z,6.13
2023-04-08T08:32:48.381Z,6.25
2023-04-08T08:35:14.872Z,6.83
2023-04-08T08:37:41.745Z,6.22
2023-04-08T08:40:09.019Z,6.50
2023-04-08T08:42:35.839Z,7.00
2023-04-08T08:45:03.528Z,5.95
2023-04-08T08:47:31.015Z,5.90
2023-04-08T08:49:57.771Z,6.25
2023-04-08T08:52:24.335Z,6.35
2023-04-08T08:54:58.981Z,6.28
2023-04-08T08:57:25.740Z,6.22
2023-04-08T08:59:52.688Z,5.90
2023-04-08T09:02:30.044Z,6.53
2023-04-08T09:05:01.605Z,5.65
2023-04-08T09:07:30.537Z,6.15
2023-04-08T09:09:58.579Z,6.28
2023-04-08T09:12:28.157Z,6.80
2023-04-08T09:15:06.056Z,6.80
2023-04-08T09:17:37.748Z,6.75
2023-04-08T09:20:12.245Z,6.30
2023-04-08T09:22:53.963Z,6.88
2023-04-08T09:25:27.829Z,7.13
2023-04-08T09:27:54.730Z,7.13
2023-04-08T09:30:23.183Z,7.15
2023-04-08T09:32:57.910Z,7.05
2023-04-08T09:35:25.620Z,7.65
2023-04-08T09:37:52.158Z,7.50
2023-04-08T09:40:18.674Z,6.90
2023-04-08T09:42:52.313Z,7.45
2023-04-08T09:45:19.155Z,7.53
2023-04-08T09:48:01.363Z,8.00
2023-04-08T09:50:31.981Z,8.50
2023-04-08T09:53:15.260Z,8.10
2023-04-08T09:55:44.101Z,8.32
2023-04-08T09:58:21.539Z,7.18
2023-04-08T10:00:51.754Z,7.82
2023-04-08T10:03:33.400Z,7.60
2023-04-08T10:06:03.369Z,6.88
2023-04-08T10:08:33.091Z,6.93
2023-04-08T10:10:59.848Z,6.57
2023-04-08T10:13:28.449Z,6.50
2023-04-08T10:16:17.722Z,6.70
2023-04-08T10:18:44.539Z,6.75
2023-04-08T10:21:51.453Z,6.88
2023-04-08T10:24:18.938Z,6.68
2023-04-08T10:26:45.761Z,6.15
2023-04-08T10:29:18.239Z,6.77
2023-04-08T10:31:45.369Z,6.72
2023-04-08T10:34:22.847Z,6.47
2023-04-08T10:36:49.821Z,6.25
2023-04-08T10:39:16.942Z,6.47
2023-04-08T10:41:48.068Z,6.47
2023-04-08T10:44:19.102Z,5.43
2023-04-08T10:46:46.823Z,5.82
2023-04-08T10:49:14.137Z,6.60
2023-04-08T10:51:42.077Z,6.20
2023-04-08T10:54:09.675Z,6.30
2023-04-08T10:56:43.725Z,6.45
2023-04-08T10:59:10.980Z,6.35
2023-04-08T11:01:41.905Z,6.93
2023-04-08T11:04:15.663Z,6.22
2023-04-08T11:06:43.932Z,6.27
2023-04-08T11:09:11.087Z,6.45
2023-04-08T11:11:37.871Z,5.88
2023-04-08T11:14:05.818Z,6.47
2023-04-08T11:16:32.694Z,6.45
2023-04-08T11:18:59.648Z,6.23
2023-04-08T11:21:29.638Z,6.13
2023-04-08T11:23:56.391Z,5.63
2023-04-08T11:26:23.598Z,5.68
2023-04-08T11:28:51.681Z,5.25
2023-04-08T11:31:20.650Z,5.80
2023-04-08T11:33:52.722Z,5.63
2023-04-08T11:36:19.362Z,5.10
2023-04-08T11:38:47.846Z,5.40
2023-04-08T11:41:14.615Z,5.00
2023-04-08T11:43:51.713Z,5.63
2023-04-08T11:46:20.432Z,5.53
2023-04-08T11:48:59.978Z,5.80
2023-04-08T11:51:27.966Z,5.45
2023-04-08T11:53:56.388Z,5.65
2023-04-08T11:56:23.958Z,4.70
2023-04-08T11:58:51.812Z,5.57
2023-04-08T12:01:18.745Z,5.10
2023-04-08T12:04:02.169Z,4.75
2023-04-08T12:06:29.351Z,5.65
2023-04-08T12:08:56.703Z,4.83
2023-04-08T12:11:23.568Z,4.32
2023-04-08T12:13:51.158Z,4.18
2023-04-08T12:16:18.879Z,3.78
2023-04-08T12:18:45.620Z,3.28
2023-04-08T12:21:12.335Z,4.30
2023-04-08T12:23:38.787Z,4.07
2023-04-08T12:26:05.457Z,3.10
2023-04-08T12:28:31.844Z,3.88
2023-04-08T12:30:58.284Z,3.72
2023-04-08T12:33:24.718Z,5.17
2023-04-08T12:35:51.372Z,3.90
2023-04-08T12:38:17.805Z,4.10
2023-04-08T12:40:44.337Z,3.78
2023-04-08T12:43:10.758Z,3.90
2023-04-08T12:45:37.228Z,5.50
2023-04-08T12:48:03.865Z,4.97
2023-04-08T12:50:30.812Z,4.78
2023-04-08T12:52:57.220Z,4.30
2023-04-08T12:55:25.065Z,3.35
2023-04-08T12:57:52.557Z,2.90
2023-04-08T13:00:19.565Z,4.00
2023-04-08T13:02:46.524Z,4.38
2023-04-08T13:05:13.041Z,3.83
2023-04-08T13:07:39.542Z,3.90
2023-04-08T13:10:07.114Z,4.53
2023-04-08T13:12:33.522Z,5.30
2023-04-08T13:15:01.250Z,5.32
2023-04-08T13:17:28.200Z,5.30
2023-04-08T13:19:54.671Z,6.00
2023-04-08T13:22:21.049Z,5.70
2023-04-08T13:24:47.873Z,5.72
2023-04-08T13:27:14.229Z,5.82
2023-04-08T13:29:40.742Z,6.03
2023-04-08T13:32:07.211Z,5.60
2023-04-08T13:34:33.638Z,6.07
2023-04-08T13:37:00.154Z,5.38
2023-04-08T13:39:26.448Z,5.40
2023-04-08T13:41:52.928Z,5.32
2023-04-08T13:44:19.443Z,6.22
2023-04-08T13:46:46.157Z,5.50
2023-04-08T13:49:12.594Z,5.40
2023-04-08T13:51:39.156Z,5.32
2023-04-08T13:54:05.915Z,6.20
2023-04-08T13:56:32.348Z,4.97
2023-04-08T13:58:58.948Z,5.53
2023-04-08T14:01:25.871Z,4.75
2023-04-08T14:03:52.439Z,4.65
2023-04-08T14:06:18.792Z,4.72
2023-04-08T14:08:45.123Z,4.93
2023-04-08T14:11:11.505Z,4.73
2023-04-08T14:13:37.988Z,6.00
2023-04-08T14:16:04.604Z,5.60
2023-04-08T14:18:31.187Z,5.25
2023-04-08T14:20:57.753Z,4.97
2023-04-08T14:23:24.196Z,4.77
2023-04-08T14:25:50.829Z,5.07
2023-04-08T14:28:17.358Z,4.70
2023-04-08T14:30:43.762Z,5.15
2023-04-08T14:33:10.725Z,5.30
2023-04-08T14:35:37.808Z,4.03
2023-04-08T14:38:04.249Z,4.50
2023-04-08T14:40:30.647Z,4.18
2023-04-08T14:42:57.092Z,3.88
2023-04-08T14:45:23.618Z,4.85
2023-04-08T14:47:50.078Z,4.17
2023-04-08T14:50:16.834Z,4.70
2023-04-08T14:52:45.329Z,4.80
2023-04-08T14:55:12.049Z,4.97
2023-04-08T14:57:38.440Z,5.10
2023-04-08T15:00:05.614Z,4.77
2023-04-08T15:02:32.191Z,5.45
2023-04-08T15:04:58.713Z,5.50
2023-04-08T15:07:25.417Z,5.47
2023-04-08T15:09:52.003Z,5.68
2023-04-08T15:12:18.464Z,5.30
2023-04-08T15:14:45.060Z,5.45
2023-04-08T15:17:11.456Z,5.30
2023-04-08T15:19:37.778Z,5.82
2023-04-08T15:22:04.194Z,6.68
2023-04-08T15:24:30.562Z,6.03
2023-04-08T15:26:57.205Z,5.50
2023-04-08T15:29:23.987Z,5.68
2023-04-08T15:31:50.408Z,6.18
2023-04-08T15:34:16.917Z,6.25
2023-04-08T15:36:43.392Z,5.63
2023-04-08T15:39:09.916Z,5.60
2023-04-08T15:41:36.487Z,5.07
2023-04-08T15:44:02.961Z,5.72
2023-04-08T15:46:29.501Z,5.18
2023-04-08T15:48:56.052Z,5.40
2023-04-08T15:51:22.853Z,4.63
2023-04-08T15:53:51.472Z,4.70
2023-04-08T15:56:18.347Z,5.95
2023-04-08T15:58:46.037Z,5.03
2023-04-08T16:01:13.308Z,5.33
2023-04-08T16:03:39.972Z,6.40
2023-04-08T16:06:07.272Z,4.80
2023-04-08T16:08:34.798Z,5.15
2023-04-08T16:11:02.823Z,5.60
2023-04-08T16:13:30.247Z,5.67
2023-04-08T16:16:03.192Z,6.65
2023-04-08T16:18:30.310Z,6.38
2023-04-08T16:20:57.178Z,6.53
2023-04-08T16:23:23.975Z,6.07
2023-04-08T16:25:50.545Z,6.03
2023-04-08T16:28:18.063Z,6.10
2023-04-08T16:30:44.629Z,6.20
2023-04-08T16:33:11.248Z,7.32
2023-04-08T16:35:37.759Z,8.32
2023-04-08T16:38:04.567Z,7.43
2023-04-08T16:40:33.111Z,7.90
2023-04-08T16:43:02.492Z,8.57
2023-04-08T16:45:30.037Z,8.60
2023-04-08T16:47:57.140Z,8.20
2023-04-08T16:50:23.752Z,9.77
2023-04-08T16:52:50.500Z,9.57
2023-04-08T16:55:17.566Z,8.77
2023-04-08T16:57:44.073Z,9.98
2023-04-08T17:00:11.149Z,10.52
2023-04-08T17:02:37.723Z,9.30
2023-04-08T17:05:04.697Z,11.10
2023-04-08T17:07:31.197Z,9.68
2023-04-08T17:09:57.775Z,10.88
2023-04-08T17:12:24.484Z,11.20
2023-04-08T17:14:51.170Z,9.97
2023-04-08T17:17:17.580Z,10.63
2023-04-08T17:19:44.212Z,9.95
2023-04-08T17:22:10.778Z,9.98
2023-04-08T17:24:37.197Z,8.88
2023-04-08T17:27:03.745Z,10.90
2023-04-08T17:29:30.089Z,10.68
2023-04-08T17:31:56.687Z,10.45
2023-04-08T17:34:24.547Z,10.43
2023-04-08T17:36:51.439Z,9.85
2023-04-08T17:39:18.419Z,10.03
2023-04-08T17:41:45.952Z,9.60
2023-04-08T17:44:12.532Z,9.30
2023-04-08T17:46:39.009Z,9.85
2023-04-08T17:49:05.592Z,9.38
2023-04-08T17:51:31.988Z,9.30
2023-04-08T17:53:58.895Z,10.18
2023-04-08T17:56:27.114Z,9.55
2023-04-08T17:58:53.675Z,9.95
2023-04-08T18:01:22.278Z,9.50
2023-04-08T18:03:50.880Z,9.87
2023-04-08T18:06:18.035Z,10.20
2023-04-08T18:08:45.366Z,9.65
2023-04-08T18:11:12.160Z,9.90
2023-04-08T18:13:38.591Z,9.93
2023-04-08T18:16:05.298Z,10.43
2023-04-08T18:18:31.797Z,9.63
2023-04-08T18:20:58.325Z,11.00
2023-04-08T18:23:24.670Z,10.05
2023-04-08T18:25:51.155Z,10.45
2023-04-08T18:28:17.649Z,10.03
2023-04-08T18:30:44.086Z,11.20
2023-04-08T18:33:10.461Z,10.80
2023-04-08T18:35:36.997Z,11.07
2023-04-08T18:38:03.516Z,10.45
2023-04-08T18:40:31.248Z,10.60
2023-04-08T18:43:01.865Z,9.65
2023-04-08T18:45:29.300Z,10.55
2023-04-08T18:47:56.271Z,11.60
2023-04-08T18:50:23.455Z,10.95
2023-04-08T18:52:49.977Z,10.10
2023-04-08T18:55:16.732Z,10.43
2023-04-08T18:57:43.185Z,10.55
2023-04-08T19:00:09.703Z,9.90
2023-04-08T19:02:36.149Z,9.75
2023-04-08T19:05:02.608Z,10.40
2023-04-08T19:07:29.041Z,10.60
2023-04-08T19:09:58.591Z,10.55
2023-04-08T19:12:26.562Z,10.50
2023-04-08T19:14:53.677Z,10.18
2023-04-08T19:17:20.434Z,10.43
2023-04-08T19:19:46.836Z,10.65
2023-04-08T19:22:13.232Z,10.57
2023-04-08T19:24:39.684Z,10.05
2023-04-08T19:27:06.188Z,9.20
2023-04-08T19:29:35.424Z,9.37
2023-04-08T19:32:03.118Z,9.13
2023-04-08T19:34:30.049Z,9.98
2023-04-08T19:36:56.504Z,9.20
2023-04-08T19:39:25.234Z,9.35
2023-04-08T19:41:53.199Z,9.27
2023-04-08T19:44:19.696Z,9.52
2023-04-08T19:46:46.293Z,9.52
2023-04-08T19:49:12.794Z,10.18
2023-04-08T19:51:39.258Z,9.35
2023-04-08T19:54:05.590Z,9.57
2023-04-08T19:56:33.963Z,9.40
2023-04-08T19:59:01.794Z,9.13
2023-04-08T20:01:28.654Z,9.82
2023-04-08T20:03:55.352Z,9.52
2023-04-08T20:06:23.007Z,9.87
2023-04-08T20:08:51.843Z,9.15
2023-04-08T20:11:18.787Z,9.40
2023-04-08T20:13:46.838Z,8.82
2023-04-08T20:16:13.593Z,9.13
2023-04-08T20:18:40.246Z,9.97
2023-04-08T20:21:08.081Z,9.65
2023-04-08T20:23:34.624Z,9.43
2023-04-08T20:26:01.421Z,9.65
2023-04-08T20:28:27.822Z,10.02
2023-04-08T20:30:54.480Z,10.13
2023-04-08T20:33:21.107Z,10.38
2023-04-08T20:35:50.295Z,9.27
2023-04-08T20:38:16.800Z,9.63
2023-04-08T20:40:44.047Z,9.75
2023-04-08T20:43:10.715Z,9.40
2023-04-08T20:45:38.000Z,9.65
2023-04-08T20:48:05.707Z,10.07
2023-04-08T20:50:32.922Z,9.02
2023-04-08T20:52:59.632Z,9.13
2023-04-08T20:55:26.124Z,9.43
2023-04-08T20:57:52.545Z,9.18
2023-04-08T21:00:19.171Z,9.40
2023-04-08T21:02:45.758Z,9.55
2023-04-08T21:05:12.398Z,9.68
2023-04-08T21:07:44.099Z,9.17
2023-04-08T21:10:11.779Z,9.13
2023-04-08T21:12:38.307Z,10.05
2023-04-08T21:15:05.273Z,10.15
2023-04-08T21:17:31.877Z,10.52
2023-04-08T21:19:58.406Z,10.87
2023-04-08T21:22:24.741Z,10.93
2023-04-08T21:24:51.109Z,11.05
2023-04-08T21:27:18.014Z,10.10
2023-04-08T21:29:44.365Z,11.32
2023-04-08T21:32:10.890Z,10.70
2023-04-08T21:34:37.440Z,10.18
2023-04-08T21:37:03.962Z,10.25
2023-04-08T21:39:30.378Z,10.55
2023-04-08T21:41:57.442Z,10.57
2023-04-08T21:44:23.992Z,10.70
2023-04-08T21:46:50.603Z,10.85
2023-04-08T21:49:17.133Z,11.07
2023-04-08T21:51:43.535Z,10.02
2023-04-08T21:54:10.172Z,9.75
2023-04-08T21:56:36.536Z,10.40
2023-04-08T21:59:03.529Z,10.13
2023-04-08T22:01:30.306Z,10.82
2023-04-08T22:03:56.970Z,9.98
2023-04-08T22:06:32.149Z,10.20
2023-04-08T22:08:59.431Z,10.67
2023-04-08T22:11:26.001Z,10.48
2023-04-08T22:13:52.467Z,10.43
2023-04-08T22:16:18.831Z,11.00
2023-04-08T22:18:45.465Z,11.27
2023-04-08T22:21:11.978Z,11.60
2023-04-08T22:23:38.946Z,11.85
2023-04-08T22:26:05.478Z,11.82
2023-04-08T22:28:34.151Z,11.40
2023-04-08T22:31:01.107Z,12.57
2023-04-08T22:33:30.243Z,12.17
2023-04-08T22:35:57.495Z,12.82
2023-04-08T22:38:24.121Z,12.82
2023-04-08T22:40:50.582Z,13.88
2023-04-08T22:43:16.953Z,13.50
2023-04-08T22:45:43.374Z,13.83
2023-04-08T22:48:09.820Z,14.32
2023-04-08T22:50:36.713Z,13.13
2023-04-08T22:53:03.741Z,14.18
2023-04-08T22:55:30.995Z,13.27
2023-04-08T22:57:57.618Z,14.43
2023-04-08T23:00:24.162Z,14.65
2023-04-08T23:02:50.763Z,14.65
2023-04-08T23:05:17.460Z,13.90
2023-04-08T23:07:44.053Z,13.73
2023-04-08T23:10:10.890Z,13.83
2023-04-08T23:12:37.313Z,15.20
2023-04-08T23:15:04.428Z,14.57
2023-04-08T23:17:30.827Z,14.60
2023-04-08T23:19:57.214Z,15.10
2023-04-08T23:22:23.599Z,15.73
2023-04-08T23:24:50.533Z,13.80
2023-04-08T23:27:16.936Z,15.50
2023-04-08T23:29:43.364Z,14.45
2023-04-08T23:32:09.878Z,13.40
2023-04-08T23:34:37.176Z,15.17
2023-04-08T23:37:04.394Z,13.73
2023-04-08T23:39:32.011Z,15.13
2023-04-08T23:41:58.562Z,14.75
2023-04-08T23:44:25.256Z,14.25
2023-04-08T23:46:51.777Z,14.33
2023-04-08T23:49:18.232Z,14.63
2023-04-08T23:51:44.724Z,14.70
2023-04-08T23:54:11.239Z,14.18
2023-04-08T23:56:39.970Z,14.85
2023-04-08T23:59:06.363Z,13.37
